createdAt,value
2018-08-23T00:01:16.493Z,18.3
2018-08-23T00:02:07.115Z,18.3
2018-08-23T00:02:56.998Z,18.3
2018-08-23T00:03:47.977Z,18.3
2018-08-23T00:04:37.324Z,18.3
2018-08-23T00:05:27.110Z,18.3
2018-08-23T00:06:17.182Z,18.3
2018-08-23T00:07:07.576Z,18.3
2018-08-23T00:07:57.784Z,18.3
2018-08-23T00:08:47.706Z,18.3
2018-08-23T00:09:37.797Z,18.3
2018-08-23T00:10:27.886Z,18.3
2018-08-23T00:11:17.863Z,18.3
2018-08-23T00:12:07.929Z,18.3
2018-08-23T00:31:25.073Z,18.2
2018-08-23T00:32:15.141Z,18.2
2018-08-23T00:33:04.932Z,18.2
2018-08-23T00:33:55.255Z,18.2
2018-08-23T00:34:45.327Z,18.2
2018-08-23T00:35:35.414Z,18.2
2018-08-23T00:36:24.886Z,18.2
2018-08-23T00:37:15.513Z,18.2
2018-08-23T00:38:05.293Z,18.2
2018-08-23T00:38:55.349Z,18.2
2018-08-23T00:39:45.721Z,18.2
2018-08-23T00:40:35.799Z,18.2
2018-08-23T00:41:25.580Z,18.1
2018-08-23T00:42:15.626Z,18.2
2018-08-23T00:43:05.673Z,18.2
2018-08-23T00:43:55.713Z,18.2
2018-08-23T00:44:45.233Z,18.2
2018-08-23T00:45:35.861Z,18.2
2018-08-23T00:46:25.937Z,18.1
2018-08-23T00:47:15.978Z,18.2
2018-08-23T00:48:06.041Z,18.2
2018-08-23T00:48:55.533Z,18.1
2018-08-23T00:49:46.455Z,18.1
2018-08-23T00:50:36.252Z,18.2
2018-08-23T00:51:26.293Z,18.1
2018-08-23T00:52:16.390Z,18.2
2018-08-23T00:53:06.738Z,18.1
2018-08-23T00:53:56.846Z,18.1
2018-08-23T00:54:46.854Z,18.1
2018-08-23T00:55:36.895Z,18.1
2018-08-23T00:56:26.695Z,18.1
2018-08-23T00:57:16.745Z,18.1
2018-08-23T00:58:07.110Z,18.1
2018-08-23T00:58:57.175Z,18.1
2018-08-23T00:59:47.210Z,18.1
2018-08-23T01:00:37.288Z,18.1
2018-08-23T01:01:27.340Z,18.1
2018-08-23T01:02:17.419Z,18.1
2018-08-23T01:03:07.497Z,18.1
2018-08-23T01:03:57.242Z,18.1
2018-08-23T01:04:47.597Z,18.1
2018-08-23T01:05:37.668Z,18.1
2018-08-23T01:06:27.729Z,18.1
2018-08-23T01:07:17.805Z,18.1
2018-08-23T01:08:07.912Z,18.1
2018-08-23T01:08:57.930Z,18.1
2018-08-23T01:09:48.012Z,18.1
2018-08-23T01:10:37.508Z,18.1
2018-08-23T01:11:28.099Z,18.1
2018-08-23T01:12:18.175Z,18.1
2018-08-23T01:13:08.232Z,18.1
2018-08-23T01:13:58.015Z,18.1
2018-08-23T01:14:48.090Z,18.1
2018-08-23T01:15:38.134Z,18.1
2018-08-23T01:16:28.209Z,18.1
2018-08-23T01:17:18.290Z,18.1
2018-08-23T01:18:08.051Z,18.1
2018-08-23T01:18:58.722Z,18.1
2018-08-23T01:19:48.781Z,18.1
2018-08-23T01:20:38.540Z,18.1
2018-08-23T01:21:28.871Z,18.1
2018-08-23T01:22:19.065Z,18.1
2018-08-23T01:23:09.026Z,18.1
2018-08-23T01:23:58.501Z,18.1
2018-08-23T01:24:49.146Z,18.1
2018-08-23T01:25:38.926Z,18.1
2018-08-23T01:26:29.279Z,18.1
2018-08-23T01:27:19.334Z,18.1
2018-08-23T01:28:09.403Z,18.1
2018-08-23T01:28:59.462Z,18.1
2018-08-23T01:29:48.946Z,18.1
2018-08-23T01:30:39.313Z,18.1
2018-08-23T01:31:29.664Z,18.1
2018-08-23T01:32:19.731Z,18.1
2018-08-23T01:33:09.781Z,18.1
2018-08-23T01:33:59.261Z,18.1
2018-08-23T01:34:49.911Z,18.1
2018-08-23T01:35:39.967Z,18.1
2018-08-23T01:36:30.011Z,18.1
2018-08-23T01:37:20.087Z,18.1
2018-08-23T01:38:09.868Z,18.1
2018-08-23T01:38:59.666Z,18.1
2018-08-23T01:39:50.008Z,18.1
2018-08-23T01:40:40.353Z,18.1
2018-08-23T01:41:30.131Z,18.1
2018-08-23T01:42:20.485Z,18.1
2018-08-23T01:43:10.523Z,18.1
2018-08-23T01:44:00.593Z,18.1
2018-08-23T01:44:50.644Z,18.1
2018-08-23T01:45:40.157Z,18.1
2018-08-23T01:46:30.496Z,18.1
2018-08-23T01:47:20.552Z,18.1
2018-08-23T01:48:10.906Z,18.1
2018-08-23T01:49:00.985Z,18.1
2018-08-23T01:49:50.770Z,18
2018-08-23T01:50:40.812Z,18.1
2018-08-23T01:51:30.893Z,18.1
2018-08-23T01:52:21.217Z,18
2018-08-23T01:53:11.017Z,18
2018-08-23T01:54:01.105Z,18
2018-08-23T01:54:51.417Z,18
2018-08-23T01:55:41.212Z,18
2018-08-23T01:56:31.557Z,18
2018-08-23T01:57:21.317Z,18
2018-08-23T01:58:11.399Z,18
2018-08-23T01:59:01.734Z,18
2018-08-23T01:59:51.540Z,18
2018-08-23T02:00:41.605Z,18
2018-08-23T02:01:31.659Z,18
2018-08-23T02:02:21.721Z,18
2018-08-23T02:03:12.109Z,17.9
2018-08-23T02:04:02.174Z,17.9
2018-08-23T02:04:52.224Z,17.9
2018-08-23T02:05:42.272Z,17.9
2018-08-23T02:06:32.337Z,17.9
2018-08-23T02:07:22.124Z,17.9
2018-08-23T02:08:12.452Z,17.9
2018-08-23T02:09:02.238Z,17.9
2018-08-23T02:09:52.586Z,17.9
2018-08-23T02:10:42.661Z,17.8
2018-08-23T02:11:32.702Z,17.9
2018-08-23T02:12:22.766Z,17.8
2018-08-23T02:13:12.847Z,17.8
2018-08-23T02:14:02.623Z,17.8
2018-08-23T02:14:52.973Z,17.8
2018-08-23T02:15:42.763Z,17.8
2018-08-23T02:16:32.547Z,17.8
2018-08-23T02:17:23.163Z,17.8
2018-08-23T02:18:13.228Z,17.7
2018-08-23T02:19:03.059Z,17.7
2018-08-23T02:19:53.081Z,17.6
2018-08-23T02:20:43.141Z,17.6
2018-08-23T02:21:33.468Z,17.6
2018-08-23T02:22:23.265Z,17.6
2018-08-23T02:23:13.613Z,17.6
2018-08-23T02:24:03.401Z,17.6
2018-08-23T02:24:53.740Z,17.6
2018-08-23T02:25:43.808Z,17.5
2018-08-23T02:26:33.862Z,17.5
2018-08-23T02:27:23.658Z,17.5
2018-08-23T02:28:13.715Z,17.4
2018-08-23T02:29:03.779Z,17.4
2018-08-23T02:29:54.175Z,17.4
2018-08-23T02:30:44.206Z,17.4
2018-08-23T02:31:33.991Z,17.4
2018-08-23T02:32:24.036Z,17.3
2018-08-23T02:33:14.095Z,17.3
2018-08-23T02:34:04.443Z,17.3
2018-08-23T02:34:54.538Z,17.3
2018-08-23T02:35:44.305Z,17.3
2018-08-23T02:36:34.646Z,17.2
2018-08-23T02:37:24.429Z,17.2
2018-08-23T02:38:15.099Z,17.2
2018-08-23T02:39:04.262Z,17.2
2018-08-23T02:39:54.625Z,17.1
2018-08-23T02:40:44.971Z,17.1
2018-08-23T02:41:35.022Z,17.1
2018-08-23T02:42:25.102Z,17.1
2018-08-23T02:43:14.983Z,17.1
2018-08-23T02:45:45.059Z,16.9
2018-08-23T02:46:35.132Z,16.9
2018-08-23T02:47:25.482Z,16.9
2018-08-23T02:48:15.559Z,16.9
2018-08-23T02:49:05.638Z,16.8
2018-08-23T02:49:55.674Z,16.8
2018-08-23T02:50:45.739Z,16.8
2018-08-23T02:51:35.796Z,16.8
2018-08-23T02:52:25.283Z,16.8
2018-08-23T02:53:15.648Z,16.7
2018-08-23T02:54:05.699Z,16.7
2018-08-23T02:54:56.058Z,16.6
2018-08-23T02:55:46.115Z,16.6
2018-08-23T02:56:36.187Z,16.6
2018-08-23T02:57:26.244Z,16.6
2018-08-23T02:58:16.309Z,16.6
2018-08-23T02:59:06.422Z,16.5
2018-08-23T02:59:56.449Z,16.4
2018-08-23T03:00:45.950Z,16.4
2018-08-23T03:01:36.583Z,16.4
2018-08-23T03:02:26.344Z,16.4
2018-08-23T03:03:16.747Z,16.3
2018-08-23T03:04:06.795Z,16.3
2018-08-23T03:04:56.553Z,16.3
2018-08-23T03:05:46.599Z,16.3
2018-08-23T03:06:36.974Z,16.3
2018-08-23T03:07:27.036Z,16.2
2018-08-23T03:08:17.100Z,16.2
2018-08-23T03:09:07.164Z,16.1
2018-08-23T03:09:56.943Z,16.1
2018-08-23T03:10:47.005Z,16.1
2018-08-23T03:11:37.360Z,16.1
2018-08-23T03:12:27.419Z,16.1
2018-08-23T03:13:17.243Z,16
2018-08-23T03:14:07.759Z,16
2018-08-23T03:14:57.607Z,15.9
2018-08-23T03:15:47.376Z,15.9
2018-08-23T03:16:37.723Z,15.9
2018-08-23T03:17:27.520Z,15.9
2018-08-23T03:18:17.857Z,15.9
2018-08-23T03:19:07.645Z,15.8
2018-08-23T03:19:58.008Z,15.8
2018-08-23T03:20:48.055Z,15.8
2018-08-23T03:21:38.123Z,15.8
2018-08-23T03:22:27.603Z,15.8
2018-08-23T03:23:18.250Z,15.8
2018-08-23T03:24:08.010Z,15.7
2018-08-23T03:24:58.090Z,15.6
2018-08-23T03:25:48.208Z,15.6
2018-08-23T03:26:38.542Z,15.6
2018-08-23T03:27:28.568Z,15.6
2018-08-23T03:28:18.351Z,15.6
2018-08-23T03:29:08.400Z,15.6
2018-08-23T03:29:58.472Z,15.5
2018-08-23T03:30:48.850Z,15.5
2018-08-23T03:31:38.635Z,15.4
2018-08-23T03:32:28.675Z,15.4
2018-08-23T03:33:19.023Z,15.4
2018-08-23T03:34:09.089Z,15.4
2018-08-23T03:34:58.575Z,15.4
2018-08-23T03:35:48.917Z,15.4
2018-08-23T03:36:39.285Z,15.3
2018-08-23T03:37:29.061Z,15.3
2018-08-23T03:38:19.411Z,15.3
2018-08-23T03:39:09.193Z,15.3
2018-08-23T03:39:59.335Z,15.3
2018-08-23T03:40:49.611Z,15.2
2018-08-23T03:41:39.409Z,15.1
2018-08-23T03:42:29.451Z,15.2
2018-08-23T03:43:19.505Z,15.1
2018-08-23T03:44:08.995Z,15.1
2018-08-23T03:44:59.914Z,15.1
2018-08-23T03:45:49.712Z,15.1
2018-08-23T03:46:40.037Z,15.1
2018-08-23T03:47:30.101Z,15
2018-08-23T03:48:20.192Z,15
2018-08-23T03:49:09.941Z,15
2018-08-23T03:50:00.017Z,15
2018-08-23T03:50:50.081Z,14.9
2018-08-23T03:51:40.439Z,14.9
2018-08-23T03:52:30.352Z,14.9
2018-08-23T03:53:19.983Z,14.9
2018-08-23T03:54:10.633Z,14.9
2018-08-23T03:55:00.123Z,14.9
2018-08-23T03:55:50.750Z,14.8
2018-08-23T03:56:40.807Z,14.8
2018-08-23T03:57:30.593Z,14.8
2018-08-23T03:58:20.651Z,14.8
2018-08-23T03:59:11.003Z,14.8
2018-08-23T04:00:01.095Z,14.8
2018-08-23T04:00:51.139Z,14.8
2018-08-23T04:01:41.206Z,14.8
2018-08-23T04:02:31.253Z,14.7
2018-08-23T04:03:21.038Z,14.7
2018-08-23T04:04:11.104Z,14.7
2018-08-23T04:05:01.464Z,14.7
2018-08-23T04:05:51.236Z,14.6
2018-08-23T04:06:41.313Z,14.6
2018-08-23T04:07:31.377Z,14.6
2018-08-23T04:08:21.720Z,14.6
2018-08-23T04:09:11.481Z,14.6
2018-08-23T04:10:01.843Z,14.6
2018-08-23T04:10:51.901Z,14.6
2018-08-23T04:11:41.975Z,14.6
2018-08-23T04:12:32.024Z,14.6
2018-08-23T04:13:22.105Z,14.6
2018-08-23T04:14:12.161Z,14.6
2018-08-23T04:15:02.245Z,14.6
2018-08-23T04:15:52.302Z,14.6
2018-08-23T04:16:42.359Z,14.5
2018-08-23T04:17:32.137Z,14.5
2018-08-23T04:18:22.490Z,14.5
2018-08-23T04:19:12.549Z,14.5
2018-08-23T04:20:02.633Z,14.5
2018-08-23T04:20:52.696Z,14.5
2018-08-23T04:21:42.760Z,14.5
2018-08-23T04:22:32.514Z,14.5
2018-08-23T04:23:22.590Z,14.5
2018-08-23T04:24:12.942Z,14.5
2018-08-23T04:25:03.028Z,14.5
2018-08-23T04:25:53.067Z,14.5
2018-08-23T04:26:43.141Z,14.6
2018-08-23T04:27:32.911Z,14.6
2018-08-23T04:28:22.699Z,14.5
2018-08-23T04:29:13.313Z,14.6
2018-08-23T04:30:03.396Z,14.6
2018-08-23T04:30:53.161Z,14.6
2018-08-23T04:31:43.238Z,14.6
2018-08-23T04:32:33.608Z,14.6
2018-08-23T04:33:23.648Z,14.6
2018-08-23T04:34:13.407Z,14.6
2018-08-23T04:35:03.776Z,14.6
2018-08-23T04:35:53.847Z,14.6
2018-08-23T04:36:43.626Z,14.6
2018-08-23T04:37:33.952Z,14.7
2018-08-23T04:38:24.032Z,14.7
2018-08-23T04:39:14.079Z,14.7
2018-08-23T04:40:04.155Z,14.7
2018-08-23T04:40:53.930Z,14.8
2018-08-23T04:41:44.281Z,14.8
2018-08-23T04:42:34.348Z,14.8
2018-08-23T05:00:31.021Z,16.1
2018-08-23T05:01:21.425Z,16.2
2018-08-23T05:02:11.426Z,16.3
2018-08-23T05:03:01.207Z,16.4
2018-08-23T05:03:51.635Z,16.5
2018-08-23T05:04:41.641Z,16.7
2018-08-23T05:05:31.692Z,16.8
2018-08-23T05:06:21.503Z,16.9
2018-08-23T05:07:11.809Z,17.1
2018-08-23T05:08:01.876Z,17.2
2018-08-23T05:08:51.940Z,17.4
2018-08-23T05:09:41.992Z,17.5
2018-08-23T05:10:31.802Z,17.7
2018-08-23T05:11:22.122Z,17.8
2018-08-23T05:12:12.192Z,18
2018-08-23T05:13:02.303Z,18.2
2018-08-23T05:13:52.390Z,18.4
2018-08-23T05:14:42.099Z,18.6
2018-08-23T05:15:32.453Z,18.8
2018-08-23T05:16:21.945Z,18.9
2018-08-23T05:17:12.003Z,19.1
2018-08-23T05:18:02.654Z,19.3
2018-08-23T05:18:52.718Z,19.6
2018-08-23T05:19:42.765Z,19.8
2018-08-23T05:20:32.843Z,19.9
2018-08-23T05:21:22.636Z,20.2
2018-08-23T05:22:12.676Z,20.4
2018-08-23T05:23:03.263Z,20.7
2018-08-23T05:23:53.112Z,20.9
2018-08-23T05:24:43.167Z,21.2
2018-08-23T05:25:33.215Z,21.4
2018-08-23T05:26:23.008Z,21.7
2018-08-23T05:27:13.344Z,21.9
2018-08-23T05:28:03.422Z,22.3
2018-08-23T05:28:53.480Z,22.5
2018-08-23T05:29:43.736Z,22.8
2018-08-23T05:30:33.329Z,23.1
2018-08-23T05:31:23.678Z,23.4
2018-08-23T05:32:13.724Z,23.6
2018-08-23T05:33:03.796Z,23.9
2018-08-23T05:33:53.861Z,24.3
2018-08-23T05:34:43.658Z,24.6
2018-08-23T05:35:33.725Z,24.8
2018-08-23T05:36:23.786Z,25.1
2018-08-23T05:37:14.120Z,25.4
2018-08-23T05:38:04.184Z,25.7
2018-08-23T05:38:53.980Z,26
2018-08-23T05:39:44.315Z,26.3
2018-08-23T05:40:34.370Z,22.6
2018-08-23T05:41:24.161Z,21.4
2018-08-23T05:42:14.503Z,25.6
2018-08-23T05:43:04.557Z,29.1
2018-08-23T05:43:54.356Z,30.1
2018-08-23T05:44:44.685Z,31.9
2018-08-23T05:45:34.472Z,32.4
2018-08-23T05:46:24.870Z,32.6
2018-08-23T05:47:14.345Z,32.6
2018-08-23T05:48:04.685Z,32.4
2018-08-23T05:48:55.050Z,32.4
2018-08-23T05:49:45.075Z,32.3
2018-08-23T05:50:34.602Z,32.3
2018-08-23T05:51:24.951Z,32.1
2018-08-23T05:52:15.278Z,32.1
2018-08-23T05:53:05.341Z,32.1
2018-08-23T05:53:55.120Z,32.1
2018-08-23T05:54:45.185Z,32.2
2018-08-23T05:55:35.554Z,31.7
2018-08-23T05:56:25.626Z,31.1
2018-08-23T05:57:15.674Z,30.8
2018-08-23T05:58:05.777Z,31.3
2018-08-23T05:58:55.800Z,32.8
2018-08-23T05:59:45.861Z,33.8
2018-08-23T06:00:35.964Z,33.9
2018-08-23T06:01:25.989Z,33.7
2018-08-23T06:02:16.057Z,33.5
2018-08-23T06:03:05.850Z,33.4
2018-08-23T06:03:55.892Z,33.4
2018-08-23T06:04:46.237Z,33.7
2018-08-23T06:05:36.307Z,33.9
2018-08-23T06:06:26.087Z,34.1
2018-08-23T06:07:16.425Z,34.3
2018-08-23T06:08:05.966Z,34.3
2018-08-23T06:08:56.562Z,34.4
2018-08-23T06:09:46.618Z,34.5
2018-08-23T06:10:36.683Z,34.6
2018-08-23T06:11:26.809Z,34.8
2018-08-23T06:12:16.820Z,34.9
2018-08-23T06:13:06.619Z,35.1
2018-08-23T06:13:56.663Z,35.2
2018-08-23T06:14:47.026Z,35.3
2018-08-23T06:15:37.074Z,35.4
2018-08-23T06:16:27.141Z,35.5
2018-08-23T06:17:17.223Z,35.4
2018-08-23T06:18:07.264Z,35.3
2018-08-23T06:18:57.331Z,35.4
2018-08-23T06:19:47.466Z,35.5
2018-08-23T06:20:37.464Z,35.6
2018-08-23T06:21:27.545Z,35.8
2018-08-23T06:22:17.588Z,35.9
2018-08-23T06:23:07.381Z,36.1
2018-08-23T06:23:57.742Z,36.1
2018-08-23T06:24:47.540Z,36.3
2018-08-23T06:25:37.602Z,36.4
2018-08-23T06:26:27.159Z,36.5
2018-08-23T06:27:17.236Z,36.6
2018-08-23T06:28:08.064Z,36.8
2018-08-23T06:28:57.278Z,36.9
2018-08-23T06:29:47.714Z,37
2018-08-23T06:30:37.695Z,37.1
2018-08-23T06:31:28.038Z,37.3
2018-08-23T06:32:17.827Z,37.4
2018-08-23T06:33:08.921Z,37.5
2018-08-23T06:33:58.352Z,37.6
2018-08-23T06:34:48.317Z,37.8
2018-08-23T06:35:38.400Z,37.9
2018-08-23T06:36:28.453Z,38.1
2018-08-23T06:37:18.512Z,38.2
2018-08-23T06:38:08.652Z,38.3
2018-08-23T06:38:58.416Z,38.4
2018-08-23T06:39:48.689Z,38.6
2018-08-23T06:40:38.771Z,38.7
2018-08-23T06:41:28.622Z,38.8
2018-08-23T06:42:18.899Z,38.9
2018-08-23T06:43:08.941Z,39.1
2018-08-23T06:43:59.000Z,39.2
2018-08-23T06:44:49.387Z,39.3
2018-08-23T06:45:39.232Z,39.4
2018-08-23T06:46:29.220Z,39.6
2018-08-23T06:47:19.057Z,39.8
2018-08-23T06:48:09.340Z,39.8
2018-08-23T06:48:59.190Z,39.9
2018-08-23T06:49:49.499Z,40.1
2018-08-23T06:50:39.129Z,40.2
2018-08-23T06:51:29.610Z,40.3
2018-08-23T06:52:19.965Z,40.4
2018-08-23T06:53:10.064Z,40.6
2018-08-23T06:53:59.497Z,40.8
2018-08-23T06:54:49.871Z,40.8
2018-08-23T06:55:39.928Z,40.9
2018-08-23T06:56:30.004Z,41.1
2018-08-23T06:57:19.757Z,41.3
2018-08-23T06:58:10.134Z,41.3
2018-08-23T06:58:59.940Z,41.4
2018-08-23T06:59:50.340Z,41.6
2018-08-23T07:00:40.316Z,41.8
2018-08-23T07:01:30.546Z,41.8
2018-08-23T07:02:20.236Z,42
2018-08-23T07:03:10.512Z,42.1
2018-08-23T07:04:00.853Z,42.3
2018-08-23T07:04:50.441Z,42.4
2018-08-23T07:05:40.211Z,42.5
2018-08-23T07:06:31.065Z,42.6
2018-08-23T07:07:20.853Z,42.8
2018-08-23T07:08:11.201Z,42.9
2018-08-23T07:09:00.769Z,43
2018-08-23T07:09:51.026Z,43.1
2018-08-23T07:10:41.451Z,43.3
2018-08-23T07:11:31.159Z,43.4
2018-08-23T07:12:21.226Z,43.5
2018-08-23T07:13:11.391Z,43.6
2018-08-23T07:14:01.350Z,43.8
2018-08-23T07:14:51.680Z,43.9
2018-08-23T07:15:41.271Z,44.1
2018-08-23T07:16:31.551Z,44.2
2018-08-23T07:17:21.612Z,44.3
2018-08-23T07:18:11.691Z,44.4
2018-08-23T07:19:02.016Z,44.6
2018-08-23T07:19:51.396Z,44.8
2018-08-23T07:20:41.870Z,44.8
2018-08-23T07:21:31.725Z,45
2018-08-23T07:22:22.005Z,45.1
2018-08-23T07:23:11.609Z,45.3
2018-08-23T07:24:01.905Z,45.4
2018-08-23T07:24:51.999Z,45.5
2018-08-23T07:25:41.766Z,45.6
2018-08-23T07:26:32.217Z,45.8
2018-08-23T07:27:22.687Z,45.9
2018-08-23T07:28:12.473Z,46.1
2018-08-23T07:29:02.909Z,46.3
2018-08-23T07:29:53.180Z,46.4
2018-08-23T07:30:42.731Z,46.6
2018-08-23T07:31:33.139Z,46.7
2018-08-23T07:32:23.062Z,46.8
2018-08-23T07:33:13.289Z,46.9
2018-08-23T07:34:03.189Z,47
2018-08-23T07:34:53.241Z,47.1
2018-08-23T07:35:43.316Z,47.3
2018-08-23T07:36:33.213Z,47.4
2018-08-23T07:37:22.884Z,47.6
2018-08-23T07:38:13.219Z,47.8
2018-08-23T07:39:03.588Z,47.9
2018-08-23T07:39:53.631Z,48
2018-08-23T07:40:43.694Z,48.1
2018-08-23T07:41:33.780Z,48.3
2018-08-23T07:42:23.679Z,48.4
2018-08-23T07:43:14.084Z,48.6
2018-08-23T07:44:03.964Z,48.8
2018-08-23T07:44:54.022Z,48.9
2018-08-23T07:45:44.090Z,49.1
2018-08-23T07:46:33.883Z,49.2
2018-08-23T07:47:24.242Z,49.3
2018-08-23T07:48:14.289Z,49.4
2018-08-23T07:49:04.103Z,49.6
2018-08-23T07:49:54.494Z,49.7
2018-08-23T07:50:44.507Z,49.9
2018-08-23T07:51:34.583Z,50
2018-08-23T07:52:24.656Z,50.2
2018-08-23T07:53:15.306Z,50.3
2018-08-23T07:54:04.464Z,50.4
2018-08-23T07:54:54.813Z,50.6
2018-08-23T07:55:44.869Z,50.8
2018-08-23T07:56:34.933Z,50.9
2018-08-23T07:57:25.011Z,51
2018-08-23T07:58:14.814Z,51.2
2018-08-23T07:59:05.140Z,51.3
2018-08-23T07:59:55.210Z,51.4
2018-08-23T08:00:45.284Z,51.6
2018-08-23T08:01:35.434Z,51.8
2018-08-23T08:02:25.118Z,51.9
2018-08-23T08:03:15.454Z,52
2018-08-23T08:04:05.535Z,52.2
2018-08-23T08:04:55.588Z,52.3
2018-08-23T08:05:45.696Z,52.2
2018-08-23T08:06:35.717Z,52.3
2018-08-23T08:07:25.838Z,52.4
2018-08-23T08:08:15.858Z,52.6
2018-08-23T08:09:05.928Z,52.8
2018-08-23T08:09:55.710Z,52.9
2018-08-23T08:10:46.062Z,53
2018-08-23T08:11:36.109Z,53.2
2018-08-23T08:12:26.178Z,53.3
2018-08-23T08:13:15.966Z,53.4
2018-08-23T08:14:06.345Z,53.6
2018-08-23T08:14:56.861Z,53.8
2018-08-23T08:15:46.159Z,53.9
2018-08-23T08:16:36.514Z,54
2018-08-23T08:17:26.596Z,54.1
2018-08-23T08:18:16.368Z,54.3
2018-08-23T08:19:06.701Z,54.4
2018-08-23T08:19:56.486Z,54.5
2018-08-23T08:20:46.982Z,54.6
2018-08-23T08:21:37.028Z,54.8
2018-08-23T08:22:26.992Z,54.9
2018-08-23T08:23:17.054Z,55.1
2018-08-23T08:24:06.806Z,55.3
2018-08-23T08:24:57.175Z,55.4
2018-08-23T08:25:47.237Z,55.5
2018-08-23T08:26:37.320Z,55.6
2018-08-23T08:27:26.799Z,55.8
2018-08-23T08:28:17.435Z,55.9
2018-08-23T08:29:07.524Z,55.9
2018-08-23T08:29:57.555Z,56.1
2018-08-23T08:30:47.669Z,56.2
2018-08-23T08:31:37.706Z,56.3
2018-08-23T08:32:27.771Z,56.4
2018-08-23T08:33:18.220Z,56.5
2018-08-23T08:34:07.871Z,56.6
2018-08-23T08:34:57.953Z,56.8
2018-08-23T08:35:47.769Z,56.9
2018-08-23T08:36:37.943Z,57
2018-08-23T08:37:28.006Z,57.1
2018-08-23T08:38:18.018Z,57.3
2018-08-23T08:39:07.994Z,57.4
2018-08-23T08:39:58.324Z,57.4
2018-08-23T08:40:48.406Z,57.6
2018-08-23T08:41:38.284Z,57.7
2018-08-23T08:42:28.434Z,57.8
2018-08-23T08:43:18.616Z,57.9
2018-08-23T08:44:08.482Z,57.9
2018-08-23T08:44:58.479Z,58.1
2018-08-23T08:45:48.669Z,58.2
2018-08-23T08:46:38.975Z,58.3
2018-08-23T08:47:29.033Z,58.4
2018-08-23T08:49:08.883Z,58.6
2018-08-23T08:49:58.933Z,58.8
2018-08-23T08:50:49.338Z,58.8
2018-08-23T08:51:39.331Z,58.9
2018-08-23T08:52:29.400Z,59
2018-08-23T08:53:19.478Z,59.1
2018-08-23T08:54:09.520Z,59.3
2018-08-23T08:54:59.505Z,59.3
2018-08-23T08:55:49.326Z,59.4
2018-08-23T08:56:39.889Z,59.5
2018-08-23T08:57:29.767Z,59.6
2018-08-23T08:58:19.760Z,59.8
2018-08-23T09:14:58.280Z,61.3
2018-08-23T09:15:48.323Z,61.3
2018-08-23T09:16:38.404Z,61.4
2018-08-23T09:17:28.449Z,61.4
2018-08-23T09:18:18.529Z,61.4
2018-08-23T09:19:08.566Z,61.5
2018-08-23T09:19:58.638Z,61.6
2018-08-23T09:20:48.631Z,61.6
2018-08-23T09:21:38.771Z,61.7
2018-08-23T09:22:28.841Z,61.8
2018-08-23T09:23:18.606Z,61.8
2018-08-23T09:24:08.696Z,61.9
2018-08-23T09:24:59.031Z,61.9
2018-08-23T09:25:48.814Z,62
2018-08-23T09:26:39.168Z,62.1
2018-08-23T09:27:29.246Z,62.2
2018-08-23T09:28:18.738Z,62.3
2018-08-23T09:29:09.371Z,62.3
2018-08-23T09:29:59.433Z,62.4
2018-08-23T09:30:49.492Z,62.4
2018-08-23T09:31:39.579Z,62.4
2018-08-23T09:32:29.624Z,62.6
2018-08-23T09:33:19.689Z,62.6
2018-08-23T09:34:09.741Z,62.6
2018-08-23T09:34:59.641Z,62.7
2018-08-23T09:35:49.924Z,62.7
2018-08-23T09:36:39.958Z,62.8
2018-08-23T09:37:30.006Z,62.8
2018-08-23T09:38:20.091Z,62.8
2018-08-23T09:39:10.157Z,62.8
2018-08-23T09:40:00.213Z,62.7
2018-08-23T09:40:50.296Z,62.8
2018-08-23T09:41:40.486Z,62.9
2018-08-23T09:42:30.388Z,63
2018-08-23T09:43:20.491Z,63.1
2018-08-23T09:44:10.239Z,63.2
2018-08-23T09:45:00.588Z,63.3
2018-08-23T09:45:50.663Z,63.3
2018-08-23T09:46:40.442Z,63.3
2018-08-23T09:47:30.801Z,63.4
2018-08-23T09:48:20.569Z,63.5
2018-08-23T09:49:10.648Z,63.4
2018-08-23T09:50:01.176Z,63.4
2018-08-23T09:50:51.731Z,63.5
2018-08-23T09:51:41.115Z,63.7
2018-08-23T09:52:30.905Z,63.8
2018-08-23T09:53:21.257Z,63.9
2018-08-23T09:54:11.324Z,63.9
2018-08-23T09:55:01.387Z,63.9
2018-08-23T09:55:51.166Z,64
2018-08-23T09:56:41.753Z,64.1
2018-08-23T09:57:31.305Z,64.1
2018-08-23T09:58:21.643Z,64.1
2018-08-23T09:59:11.709Z,64.2
2018-08-23T10:00:01.774Z,64.3
2018-08-23T10:00:51.859Z,64.3
2018-08-23T10:01:41.910Z,64.3
2018-08-23T10:02:31.724Z,64.3
2018-08-23T10:03:22.061Z,64.4
2018-08-23T10:04:12.259Z,64.5
2018-08-23T10:05:02.174Z,64.4
2018-08-23T10:05:52.241Z,64.4
2018-08-23T10:06:42.298Z,64.5
2018-08-23T10:07:32.097Z,64.6
2018-08-23T10:08:22.426Z,64.7
2018-08-23T10:09:12.496Z,64.8
2018-08-23T10:10:02.563Z,64.8
2018-08-23T10:10:52.339Z,64.9
2018-08-23T10:11:43.066Z,65
2018-08-23T10:12:32.270Z,65.1
2018-08-23T10:13:22.533Z,64.9
2018-08-23T10:14:12.885Z,64.8
2018-08-23T10:15:02.950Z,64.9
2018-08-23T10:15:53.002Z,65.1
2018-08-23T10:16:42.790Z,65.3
2018-08-23T10:17:33.174Z,65.3
2018-08-23T10:18:22.919Z,65.4
2018-08-23T10:19:13.257Z,65.4
2018-08-23T10:20:03.405Z,65.4
2018-08-23T10:20:53.431Z,65.5
2018-08-23T10:21:43.517Z,65.6
2018-08-23T10:22:33.543Z,65.6
2018-08-23T10:23:23.626Z,65.6
2018-08-23T10:24:13.661Z,65.7
2018-08-23T10:25:03.742Z,65.8
2018-08-23T10:25:53.791Z,65.8
2018-08-23T10:26:44.398Z,65.8
2018-08-23T10:27:33.958Z,65.6
2018-08-23T10:28:24.029Z,65.7
2018-08-23T10:29:14.051Z,65.8
2018-08-23T10:30:04.130Z,65.9
2018-08-23T10:30:54.213Z,66
2018-08-23T10:31:44.001Z,66.1
2018-08-23T10:32:34.323Z,66.1
2018-08-23T10:33:24.453Z,66.1
2018-08-23T10:34:14.473Z,66.2
2018-08-23T10:35:04.537Z,66.3
2018-08-23T10:35:54.623Z,66.4
2018-08-23T10:36:44.385Z,66.4
2018-08-23T10:37:34.766Z,66.4
2018-08-23T10:38:24.531Z,66.5
2018-08-23T10:39:14.619Z,66.6
2018-08-23T10:40:04.930Z,66.6
2018-08-23T10:40:55.015Z,66.6
2018-08-23T10:41:44.795Z,66.7
2018-08-23T10:42:34.855Z,66.8
2018-08-23T10:43:25.208Z,66.9
2018-08-23T10:44:15.138Z,66.9
2018-08-23T10:45:05.039Z,66.9
2018-08-23T10:45:54.813Z,67
2018-08-23T10:46:45.446Z,67
2018-08-23T10:47:35.519Z,67
2018-08-23T10:48:25.277Z,67.1
2018-08-23T10:49:15.336Z,67.1
2018-08-23T10:50:05.437Z,67.1
2018-08-23T10:50:55.941Z,67.1
2018-08-23T10:51:45.607Z,67.2
2018-08-23T10:52:35.894Z,67.3
2018-08-23T10:53:25.942Z,67.4
2018-08-23T10:54:16.051Z,67.4
2018-08-23T10:55:06.114Z,67.4
2018-08-23T10:55:56.154Z,67.3
2018-08-23T10:56:46.220Z,67.1
2018-08-23T10:57:35.999Z,67.1
2018-08-23T10:58:26.359Z,67.3
2018-08-23T10:59:16.439Z,67.4
2018-08-23T11:00:06.474Z,67.4
2018-08-23T11:00:56.536Z,67.4
2018-08-23T11:01:46.326Z,67.4
2018-08-23T11:02:36.661Z,67.5
2018-08-23T11:03:26.743Z,67.5
2018-08-23T11:04:16.826Z,67.6
2018-08-23T11:05:06.861Z,67.7
2018-08-23T11:05:56.939Z,67.8
2018-08-23T11:06:46.711Z,67.8
2018-08-23T11:07:36.822Z,67.8
2018-08-23T11:08:27.133Z,67.8
2018-08-23T11:09:17.218Z,67.9
2018-08-23T11:10:07.267Z,67.9
2018-08-23T11:10:57.346Z,67.9
2018-08-23T11:11:47.146Z,68
2018-08-23T11:12:37.483Z,68.1
2018-08-23T11:13:27.538Z,68.1
2018-08-23T11:14:17.299Z,68.1
2018-08-23T11:15:07.690Z,68.2
2018-08-23T11:15:57.725Z,68.3
2018-08-23T11:16:48.240Z,68.3
2018-08-23T11:17:37.856Z,68.3
2018-08-23T11:18:27.927Z,68.4
2018-08-23T11:19:17.993Z,68.4
2018-08-23T11:20:07.595Z,68.4
2018-08-23T11:20:57.839Z,68.5
2018-08-23T11:21:48.172Z,68.5
2018-08-23T11:22:38.245Z,68.5
2018-08-23T11:23:28.042Z,68.6
2018-08-23T11:24:18.490Z,68.6
2018-08-23T11:25:08.460Z,68.7
2018-08-23T11:25:58.240Z,68.7
2018-08-23T11:26:48.292Z,68.8
2018-08-23T11:27:38.649Z,68.8
2018-08-23T11:28:28.157Z,68.8
2018-08-23T11:29:18.197Z,68.8
2018-08-23T11:30:08.842Z,68.9
2018-08-23T11:30:58.889Z,68.9
2018-08-23T11:31:48.962Z,68.9
2018-08-23T11:32:39.020Z,69
2018-08-23T11:33:29.118Z,69
2018-08-23T11:34:18.892Z,69
2018-08-23T11:35:09.140Z,69.1
2018-08-23T11:35:59.327Z,69.1
2018-08-23T11:36:49.120Z,69.2
2018-08-23T11:37:38.875Z,69.2
2018-08-23T11:38:28.915Z,69.2
2018-08-23T11:39:19.559Z,69.2
2018-08-23T11:40:09.659Z,69.3
2018-08-23T11:40:59.695Z,69.3
2018-08-23T11:41:49.464Z,69.1
2018-08-23T11:42:39.919Z,68.9
2018-08-23T11:43:29.889Z,68.9
2018-08-23T11:44:19.944Z,68.9
2018-08-23T11:45:10.025Z,69
2018-08-23T11:46:00.137Z,69.1
2018-08-23T11:46:50.170Z,69.1
2018-08-23T11:47:40.219Z,69.1
2018-08-23T11:48:30.289Z,69.1
2018-08-23T11:49:20.364Z,69.1
2018-08-23T11:50:10.409Z,69.1
2018-08-23T11:50:59.930Z,69.2
2018-08-23T11:51:50.254Z,69.2
2018-08-23T11:52:40.359Z,69.2
2018-08-23T11:53:31.767Z,69.3
2018-08-23T11:54:20.741Z,69.3
2018-08-23T11:55:10.513Z,69.3
2018-08-23T11:56:00.884Z,69.3
2018-08-23T11:56:50.935Z,69.4
2018-08-23T11:57:41.001Z,69.4
2018-08-23T11:58:31.144Z,69.4
2018-08-23T11:59:20.884Z,69.4
2018-08-23T12:00:10.914Z,69.5
2018-08-23T12:01:01.301Z,69.5
2018-08-23T12:01:51.401Z,69.5
2018-08-23T12:02:41.448Z,69.5
2018-08-23T12:03:31.216Z,69.6